Warning: Javascript must be enabled to use all the features on this page!


Page Loading - Please Wait...

Click to hideNews Bulletins

Peak Streamflow for the Nation

USGS 05580000 KICKAPOO CREEK AT WAYNESVILLE, IL

Dewitt County, Illinois
Hydrologic Unit Code 07130009
Latitude  40°15'17", Longitude  89°07'45" NAD27
Drainage area 227  square miles
Gage datum 620.24 feet above NGVD29
Output formats
Table
Graph
Tab-separated file
peakfq (watstore) format
Reselect output format
Water
Year
Date Gage
Height
(feet)
Stream-
flow
(cfs)
1948 1948-03-21 12.00 3,000
1949 1949-01-28 13.19 5,060
1950 1950-04-25 15.02 8,300
1951 1951-02-19 13.40 5,240
1952 1952-06-23 11.67 2,570
1953 1953-04-01 11.77 2,700
1954 1954-04-11 10.00 1,300
1955 1955-02-19 11.121 1,5002
1956 1956-05-27 14.01 6,500
1957 1957-04-27 12.40 3,630
1958 1958-06-13 11.93 2,440
1959 1959-02-10 14.80 7,900
1960 1960-06-23 12.80 4,380
1961 1961-05-08 13.52 6,140
1962 1962-02-05 12.98 3,860
1963 1963-03-05 13.90 5,120
1964 1964-04-21 13.87 8,420
1965 1965-04-06 12.05 2,560
1966 1966-06-16 11.63 2,100
1967 1967-05-11 10.60 1,530
1968 1968-05-16 14.20 5,400
1969 1969-06-30 13.45 3,280
1970 1969-10-13 13.20 2,950
1971 1971-02-05 10.23 1,330
1972 1972-03-14 11.27 1,600
1973 1973-04-22 15.59 15,100
1974 1974-06-22 15.35 12,800
1975 1975-01-11 12.39 2,420
1976 1976-03-05 13.50 4,270
1977 1977-05-06 13.31 5,430
1978 1977-10-01   1,8002
1979 1979-04-11 16.55 21,400
1980 1980-06-03 13.46 3,890
1981 1981-08-15 16.91 12,700
1982 1982-04-16 14.70 7,300
1983 1982-12-03 14.01 5,200
1984 1984-05-26 13.62 4,260
1985 1985-02-24 13.71 4,470
1986 1985-11-19 14.76 7,450
1987 1986-10-04 12.12 2,510
1988 1988-01-20 12.27 2,610
1989 1989-05-26 12.08 4,890
1990 1990-02-23 13.48 3,970
1991 1990-12-29 15.46 8,970
1992 1992-07-08 14.27 6,120
1993 1993-01-04 15.39 8,810
1994 1994-04-12 15.78 9,720
1995 1995-05-10 14.95 6,530
1996 1996-05-11 12.49 2,780
1997 1997-02-27 11.08 2,020
1998 1998-04-30 13.50 4,000
1999 1999-06-13 14.35 6,410
2000 2000-06-21 10.77 1,790
2001 2001-02-25 13.34 3,720
2002 2002-05-12 13.41 3,840
2003 2003-07-11 14.33 4,550
2004 2004-05-25 13.13 3,370
2005 2005-01-13 16.77 13,300
2006 2006-03-13 9.12 1,340
2007 2007-03-02 13.64 4,950
2008 2008-06-04 16.50 11,600
2009 2009-05-16 14.11 5,930
2010 2009-10-31 16.72 12,200
2011 2011-04-23 13.06 3,910
2012 2011-12-15 4.68 375
2013 2013-04-19 14.04 5,790
2014 2014-02-20   6,8002,5,9
2015 2015-07-09 16.33 11,100
2016 2015-12-29 15.46 9,010
2017 2017-05-01 11.26 2,120
2018 2018-02-22 11.98 2,390
2019 2019-05-01 14.96 7,930
2020 2020-05-18 14.90 8,240
2021 2021-06-26 18.39 17,600
?
  Peak Gage-Height Qualification Codes.
?
  Peak Streamflow Qualification Codes.